Elisabeth — LHEA — position and weather

sailwx.info

Track history (hours):
 
Tides and Currents Weather Stations Pressure Air Temp Water Temp Dewpoint Dewpoint Depression Visibility Wind Speed Wind Dir Waves Ship Positions

Elisabeth

Last reported at 2014-Oct-10 17:15 UTC. Time now 2014-Oct-21 21:38 UTC.
Position N 59°30' E 005°13'.
Warning: this ship's position is 11 days out of date.

Length 61 m; draft 5.8 m.

Type: Fishing. MMSI: 259166000.

Date/timePositionNaut miles runAvg speedWind from/ knotsBaromVisibWave heightAir tempDewpointWater temp
2014-Oct-10 17:15N 59°30' E 005°13'811.6
2014-Oct-10 16:33N 59°22' E 005°18'1313.4
2014-Oct-10 15:33N 59°09' E 005°22'1212.4
2014-Oct-10 14:33N 58°56' E 005°21'2612.8
2014-Oct-10 12:31N 58°32' E 005°39'1111.8
2014-Oct-10 11:34N 58°23' E 005°53'5 4.5
2014-Oct-10 10:34N 58°27' E 005°59'0 0.1
2014-Oct-10 09:34N 58°27' E 005°59'0 0.0
2014-Oct-10 08:34N 58°27' E 005°59'0 0.0
2014-Oct-10 07:33N 58°27' E 005°59'0 0.0
2014-Oct-10 06:34N 58°27' E 005°59'0 0.0
2014-Oct-10 05:33N 58°27' E 005°59'0 0.0
2014-Oct-10 04:34N 58°27' E 005°59'0 0.0
2014-Oct-10 03:34N 58°27' E 005°59'0 0.0
2014-Oct-10 02:34N 58°27' E 005°59'0 0.0
2014-Oct-10 01:34N 58°27' E 005°59'0 0.0
2014-Oct-10 00:34N 58°27' E 005°59'0 0.0
2014-Oct-09 23:34N 58°27' E 005°59'0 0.0
2014-Oct-09 22:33N 58°27' E 005°59'0 0.0
2014-Oct-09 21:34N 58°27' E 005°59'0 0.0
2014-Oct-09 20:34N 58°27' E 005°59'0 0.3
2014-Oct-09 19:34N 58°27' E 005°59'4 3.7
2014-Oct-09 18:34N 58°24' E 005°54'23 9.5
2014-Oct-09 16:05N 58°44' E 005°29'5 8.9
2014-Oct-09 15:33N 58°48' E 005°25'9 9.4
2014-Oct-09 14:33N 58°57' E 005°33'1010.3
2014-Oct-09 13:33N 59°07' E 005°29'13 9.0
2014-Oct-09 12:08N 59°19' E 005°20'610.2
2014-Oct-09 11:34N 59°24' E 005°16'  
2014-Oct-06 18:21N 59°30' E 005°13'7 9.0
2014-Oct-06 17:33N 59°23' E 005°17'1211.7
2014-Oct-06 16:32N 59°11' E 005°21'1211.7
2014-Oct-06 15:33N 58°60' E 005°20'1312.7
2014-Oct-06 14:33N 58°47' E 005°24'1613.2
2014-Oct-06 13:23N 58°34' E 005°38'1012.5
2014-Oct-06 12:33N 58°26' E 005°51'4 4.4
2014-Oct-06 11:33N 58°27' E 005°59'0 0.1
2014-Oct-06 10:33N 58°27' E 005°59'0 0.0
2014-Oct-06 09:33N 58°27' E 005°59'0 0.0
2014-Oct-06 08:33N 58°27' E 005°59'0 0.0
2014-Oct-06 07:33N 58°27' E 005°59'0 0.0
2014-Oct-06 06:33N 58°27' E 005°59'0 0.0
2014-Oct-06 05:33N 58°27' E 005°59'0 0.0
2014-Oct-06 04:33N 58°27' E 005°59'0 0.0
2014-Oct-06 03:33N 58°27' E 005°59'0 0.0
2014-Oct-06 02:33N 58°27' E 005°59'0 0.0
2014-Oct-06 01:33N 58°27' E 005°59'0 0.0
2014-Oct-06 00:33N 58°27' E 005°59'4 4.2
2014-Oct-05 23:33N 58°25' E 005°52'2311.5
2014-Oct-05 21:33N 58°44' E 005°28'1110.9
2014-Oct-05 20:33N 58°55' E 005°21'1010.1
2014-Oct-05 19:33N 59°05' E 005°20'1410.2
2014-Oct-05 18:10N 59°19' E 005°20'5 8.3
2014-Oct-05 17:33N 59°24' E 005°16'2 1.6
2014-Oct-05 16:33N 59°25' E 005°14'  
2014-Oct-02 01:05N 59°30' E 005°13'5 8.9
2014-Oct-02 00:33N 59°25' E 005°14'9 8.8
2014-Oct-01 23:32N 59°17' E 005°20'9 8.8
2014-Oct-01 22:33N 59°08' E 005°21'9 8.6
2014-Oct-01 21:33N 58°60' E 005°20'8 8.1
2014-Oct-01 20:33N 58°52' E 005°23'20 8.5
2014-Oct-01 18:16N 58°34' E 005°37'6 8.7
2014-Oct-01 17:33N 58°29' E 005°44'9 8.9
2014-Oct-01 16:32N 58°25' E 005°60'2 1.8
2014-Oct-01 15:33N 58°27' E 005°59'0 0.0
2014-Oct-01 14:33N 58°27' E 005°59'0 0.0
2014-Oct-01 13:33N 58°27' E 005°59'0 0.0
2014-Oct-01 12:33N 58°27' E 005°59'0 0.0
2014-Oct-01 11:33N 58°27' E 005°59'0 0.0
2014-Oct-01 10:33N 58°27' E 005°59'0 0.1
2014-Oct-01 09:33N 58°27' E 005°59'0 0.4
2014-Oct-01 08:33N 58°27' E 005°59'0 0.0
2014-Oct-01 07:33N 58°27' E 005°59'0 0.0
2014-Oct-01 06:33N 58°27' E 005°59'0 0.0
2014-Oct-01 05:33N 58°27' E 005°59'0 0.0
2014-Oct-01 04:33N 58°27' E 005°59'0 0.0
2014-Oct-01 03:33N 58°27' E 005°59'0 0.0
2014-Oct-01 02:33N 58°27' E 005°59'0 0.0
2014-Oct-01 01:33N 58°27' E 005°59'0 0.0
2014-Oct-01 00:33N 58°27' E 005°59'0 0.0
2014-Sep-30 23:33N 58°27' E 005°59'6 5.5
2014-Sep-30 22:33N 58°26' E 005°49'2110.2
2014-Sep-30 20:28N 58°44' E 005°27'910.0
2014-Sep-30 19:33N 58°53' E 005°22'1110.8
2014-Sep-30 18:33N 59°03' E 005°19'  
Track history (hours):
 
Tides and Currents Weather Stations Pressure Air Temp Water Temp Dewpoint Dewpoint Depression Visibility Wind Speed Wind Dir Waves Ship Positions

Elisabeth

Last reported at 2014-Oct-10 17:15 UTC. Time now 2014-Oct-21 21:38 UTC.
Position N 59°30' E 005°13'.
Warning: this ship's position is 11 days out of date.

Length 61 m; draft 5.8 m.

Type: Fishing. MMSI: 259166000.

Date/timePositionNaut miles runAvg speedWind from/ knotsBaromVisibWave heightAir tempDewpointWater temp
2014-Oct-10 17:15N 59°30' E 005°13'811.6
2014-Oct-10 16:33N 59°22' E 005°18'1313.4
2014-Oct-10 15:33N 59°09' E 005°22'1212.4
2014-Oct-10 14:33N 58°56' E 005°21'2612.8
2014-Oct-10 12:31N 58°32' E 005°39'1111.8
2014-Oct-10 11:34N 58°23' E 005°53'5 4.5
2014-Oct-10 10:34N 58°27' E 005°59'0 0.1
2014-Oct-10 09:34N 58°27' E 005°59'0 0.0
2014-Oct-10 08:34N 58°27' E 005°59'0 0.0
2014-Oct-10 07:33N 58°27' E 005°59'0 0.0
2014-Oct-10 06:34N 58°27' E 005°59'0 0.0
2014-Oct-10 05:33N 58°27' E 005°59'0 0.0
2014-Oct-10 04:34N 58°27' E 005°59'0 0.0
2014-Oct-10 03:34N 58°27' E 005°59'0 0.0
2014-Oct-10 02:34N 58°27' E 005°59'0 0.0
2014-Oct-10 01:34N 58°27' E 005°59'0 0.0
2014-Oct-10 00:34N 58°27' E 005°59'0 0.0
2014-Oct-09 23:34N 58°27' E 005°59'0 0.0
2014-Oct-09 22:33N 58°27' E 005°59'0 0.0
2014-Oct-09 21:34N 58°27' E 005°59'0 0.0
2014-Oct-09 20:34N 58°27' E 005°59'0 0.3
2014-Oct-09 19:34N 58°27' E 005°59'4 3.7
2014-Oct-09 18:34N 58°24' E 005°54'23 9.5
2014-Oct-09 16:05N 58°44' E 005°29'5 8.9
2014-Oct-09 15:33N 58°48' E 005°25'9 9.4
2014-Oct-09 14:33N 58°57' E 005°33'1010.3
2014-Oct-09 13:33N 59°07' E 005°29'13 9.0
2014-Oct-09 12:08N 59°19' E 005°20'610.2
2014-Oct-09 11:34N 59°24' E 005°16'  
2014-Oct-06 18:21N 59°30' E 005°13'7 9.0
2014-Oct-06 17:33N 59°23' E 005°17'1211.7
2014-Oct-06 16:32N 59°11' E 005°21'1211.7
2014-Oct-06 15:33N 58°60' E 005°20'1312.7
2014-Oct-06 14:33N 58°47' E 005°24'1613.2
2014-Oct-06 13:23N 58°34' E 005°38'1012.5
2014-Oct-06 12:33N 58°26' E 005°51'4 4.4
2014-Oct-06 11:33N 58°27' E 005°59'0 0.1
2014-Oct-06 10:33N 58°27' E 005°59'0 0.0
2014-Oct-06 09:33N 58°27' E 005°59'0 0.0
2014-Oct-06 08:33N 58°27' E 005°59'0 0.0
2014-Oct-06 07:33N 58°27' E 005°59'0 0.0
2014-Oct-06 06:33N 58°27' E 005°59'0 0.0
2014-Oct-06 05:33N 58°27' E 005°59'0 0.0
2014-Oct-06 04:33N 58°27' E 005°59'0 0.0
2014-Oct-06 03:33N 58°27' E 005°59'0 0.0
2014-Oct-06 02:33N 58°27' E 005°59'0 0.0
2014-Oct-06 01:33N 58°27' E 005°59'0 0.0
2014-Oct-06 00:33N 58°27' E 005°59'4 4.2
2014-Oct-05 23:33N 58°25' E 005°52'2311.5
2014-Oct-05 21:33N 58°44' E 005°28'1110.9
2014-Oct-05 20:33N 58°55' E 005°21'1010.1
2014-Oct-05 19:33N 59°05' E 005°20'1410.2
2014-Oct-05 18:10N 59°19' E 005°20'5 8.3
2014-Oct-05 17:33N 59°24' E 005°16'2 1.6
2014-Oct-05 16:33N 59°25' E 005°14'  
2014-Oct-02 01:05N 59°30' E 005°13'5 8.9
2014-Oct-02 00:33N 59°25' E 005°14'9 8.8
2014-Oct-01 23:32N 59°17' E 005°20'9 8.8
2014-Oct-01 22:33N 59°08' E 005°21'9 8.6
2014-Oct-01 21:33N 58°60' E 005°20'8 8.1
2014-Oct-01 20:33N 58°52' E 005°23'20 8.5
2014-Oct-01 18:16N 58°34' E 005°37'6 8.7
2014-Oct-01 17:33N 58°29' E 005°44'9 8.9
2014-Oct-01 16:32N 58°25' E 005°60'2 1.8
2014-Oct-01 15:33N 58°27' E 005°59'0 0.0
2014-Oct-01 14:33N 58°27' E 005°59'0 0.0
2014-Oct-01 13:33N 58°27' E 005°59'0 0.0
2014-Oct-01 12:33N 58°27' E 005°59'0 0.0
2014-Oct-01 11:33N 58°27' E 005°59'0 0.0
2014-Oct-01 10:33N 58°27' E 005°59'0 0.1
2014-Oct-01 09:33N 58°27' E 005°59'0 0.4
2014-Oct-01 08:33N 58°27' E 005°59'0 0.0
2014-Oct-01 07:33N 58°27' E 005°59'0 0.0
2014-Oct-01 06:33N 58°27' E 005°59'0 0.0
2014-Oct-01 05:33N 58°27' E 005°59'0 0.0
2014-Oct-01 04:33N 58°27' E 005°59'0 0.0
2014-Oct-01 03:33N 58°27' E 005°59'0 0.0
2014-Oct-01 02:33N 58°27' E 005°59'0 0.0
2014-Oct-01 01:33N 58°27' E 005°59'0 0.0
2014-Oct-01 00:33N 58°27' E 005°59'0 0.0
2014-Sep-30 23:33N 58°27' E 005°59'6 5.5
2014-Sep-30 22:33N 58°26' E 005°49'2110.2
2014-Sep-30 20:28N 58°44' E 005°27'910.0
2014-Sep-30 19:33N 58°53' E 005°22'1110.8
2014-Sep-30 18:33N 59°03' E 005°19'  

Dump ship's entire track history